Аэропорт: Михайловка. Барнаул

ICAO: UNBB

METAR:
2022-06-26 10:30:00
UNBB 261030Z 24007MPS CAVOK 35/09 Q0996 R24/CLRD66 NOSIG RMK QFE725
METAR:
2022-06-26 08:00:00
TAF UNBB 260800Z 2609/2709 20008G15MPS 9999 BKN040CB TEMPO 2609/2615 26010G18MPS -TSRA BKN010CB FM261500 24003G08MPS 8000 -SHRA BKN030CB TEMPO 2615/2709 3000 -TSRA SCT007 BKN010CB BECMG 2621/2622 17003G08MPS